Flight Track Log - Related Links

Times and Time Zones

All times are in EDT time to prevent confusion due to time zone crossing. See the UAL4274 flight status page for this flight to view local times or setup timezone preferences in your user account.

Time Position Orientation Groundspeed Altitude Reporting Facility
EDT Latitude Longitude Course Direction KTS km/h meters Rate Location/Type
Mon 13:17:33 30.1269 -92.0947 227° Southwest 214 396 4,877  Level Houston Center
Mon 13:18:35 30.0906 -92.1508 233° Southwest 246 455 2,164 -885 Descending Houston Center
Mon 13:19:00 29.9974 -92.2646 229° Southwest  Level FlightAware Approximate
Mon 13:19:37 30.0458 -92.2228 234° Southwest 261 483 3,048  Level Houston Center
Mon 13:20:00 29.9450 -92.3345 229° Southwest  Level FlightAware Approximate
Mon 13:20:39 29.9933 -92.3028 233° Southwest 310 575 3,292  Level Houston Center
Mon 13:21:00 29.9022 -92.4099 249° West  Level FlightAware Approximate
Mon 13:21:41 29.9244 -92.4067 233° Southwest 337 624 3,993  Level Houston Center
Mon 13:22:00 29.8468 -92.4832 227° Southwest  Level FlightAware Approximate
Mon 13:22:44 29.8681 -92.4956 234° Southwest 341 631 4,420  Level Houston Center
Mon 13:23:46 29.8086 -92.5875 233° Southwest 353 653 4,755 221 Climbing Houston Center
Mon 13:24:48 29.7458 -92.6806 232° Southwest 363 673 4,877 59 Climbing Houston Center
Mon 13:25:50 29.6817 -92.7772 233° Southwest 376 697 4,877  Level Houston Center
Mon 13:26:52 29.6186 -92.8750 233° Southwest 380 703 4,877  Level Houston Center
Mon 13:27:54 29.5456 -92.9850 233° Southwest 365 676 4,877  Level Houston Center
Mon 13:28:56 29.4919 -93.0706 234° Southwest 340 629 4,877  Level Houston Center
Mon 13:29:59 29.4892 -93.1792 268° West 340 629 4,877  Level Houston Center
Mon 13:31:01 29.4933 -93.2808 273° West 344 637 4,877  Level Houston Center
Mon 13:32:03 29.4983 -93.4114 273° West 343 636 4,877  Level Houston Center
Mon 13:33:05 29.5031 -93.5197 273° West 342 634 4,877  Level Houston Center
Mon 13:34:07 29.5069 -93.6267 272° West 338 626 4,877  Level Houston Center
Mon 13:35:09 29.5103 -93.7342 272° West 337 624 4,877 -118 Level Houston Center
Mon 13:36:11 29.5142 -93.8417 272° West 338 626 4,633 -281 Descending Houston Center
Mon 13:36:40 29.5169 -93.9050 273° West 333 616 4,450 -290 Descending Houston Center
Mon 13:37:14 29.5194 -93.9464 274° West 332 615 4,328 -330 Descending Houston Center
Mon 13:37:41 29.5219 -94.0150 272° West 327 605 4,115 -354 Descending Houston Center
Mon 13:38:16 29.5231 -94.0706 271° West 328 607 3,962 -150 Descending Houston Center
Mon 13:38:42 29.5239 -94.1158 271° West 327 605 3,962  Level Houston Center
Mon 13:39:18 29.5283 -94.1758 275° West 329 610 3,962 -56 Level Houston Center
Mon 13:40:20 29.5308 -94.2850 272° West 337 624 3,871 -183 Descending Houston Center
Mon 13:40:38 29.5331 -94.3333 273° West 366 678 3,719 -295 Descending Houston Center
Mon 13:41:22 29.5569 -94.3983 293° West 365 676 3,566 -276 Descending Houston Center
Mon 13:42:24 29.6017 -94.5053 296° West 372 689 3,231 -265 Descending Houston Center
Mon 13:43:26 29.6553 -94.6314 296° West 368 681 3,018 -103 Descending Houston Center
Mon 13:44:28 29.6994 -94.7350 296° West 364 674 3,018 -59 Level Houston Center
Mon 13:45:30 29.7378 -94.8242 296° West 317 587 2,896 -206 Descending Houston Center
Mon 13:46:32 29.7722 -94.9058 296° West 289 536 2,591 -322 Descending Houston Center
Mon 13:47:35 29.8100 -94.9983 295° West 285 528 2,225 -357 Descending Houston Center
Mon 13:48:35 29.8475 -95.0850 297° West 282 523 1,859 -193 Descending Houston Center
Mon 13:49:38 29.8814 -95.1650 296° West 284 526 1,829 -15 Descending Houston Center
Mon 13:50:37 29.8986 -95.2522 283° West 277 513 1,829  Level Houston Center
Mon 13:51:39 29.9003 -95.3389 271° West 270 501 1,829  Level Houston Center
Mon 13:52:40 29.9000 -95.4258 270° West 236 438 1,829  Level Houston Center
Mon 13:53:41 29.9003 -95.5003 270° West 234 433 1,829  Level Houston Center
Mon 13:54:42 29.9011 -95.5775 271° West 236 438 1,829  Level Houston Center
Mon 13:55:50 29.9008 -95.6569 270° West 237 439 1,829  Level Houston Center
Mon 13:56:50 29.9306 -95.7208 298° West 250 463 1,829 -151 Level Houston Center
Mon 13:57:51 29.9778 -95.6600 48° Northeast 253 468 1,524 -300 Descending Houston Center
Mon 13:58:52 29.9928 -95.5931 75° East 201 372 1,219 -300 Descending Houston Center

Login

Don't have an account? Register now (free) for customized features, flight alerts, and more!